createdAt,value
2022-12-29T00:00:15.119Z,98536.78
2022-12-29T00:02:42.868Z,98530.31
2022-12-29T00:05:11.119Z,98531.28
2022-12-29T00:07:38.635Z,98525.78
2022-12-29T00:10:07.312Z,98528.78
2022-12-29T00:12:48.726Z,98518.78
2022-12-29T00:15:35.846Z,98506.47
2022-12-29T00:18:03.445Z,98510.19
2022-12-29T00:20:48.418Z,98510.91
2022-12-29T00:23:33.674Z,98504.25
2022-12-29T00:26:22.903Z,98499.16
2022-12-29T00:29:09.627Z,98488.31
2022-12-29T00:31:55.976Z,98482.59
2022-12-29T00:34:41.259Z,98488.97
2022-12-29T00:37:08.750Z,98490.19
2022-12-29T00:39:53.943Z,98488.69
2022-12-29T00:42:35.330Z,98489.66
2022-12-29T00:45:02.819Z,98477.63
2022-12-29T00:47:31.660Z,98470.09
2022-12-29T00:49:58.181Z,98477.47
2022-12-29T00:52:25.660Z,98462.56
2022-12-29T00:54:53.126Z,98468.44
2022-12-29T00:57:20.628Z,98462.25
2022-12-29T00:59:48.161Z,98466.22
2022-12-29T01:02:15.770Z,98454.78
2022-12-29T01:04:44.646Z,98467.38
2022-12-29T01:07:12.143Z,98462.72
2022-12-29T01:09:57.212Z,98468.75
2022-12-29T01:12:38.638Z,98447.06
2022-12-29T01:15:07.383Z,98462.47
2022-12-29T01:17:34.917Z,98467.56
2022-12-29T01:20:04.094Z,98453.44
2022-12-29T01:22:31.612Z,98445.25
2022-12-29T01:24:59.104Z,98446.84
2022-12-29T01:27:26.620Z,98443.22
2022-12-29T01:29:54.082Z,98448.44
2022-12-29T01:32:21.574Z,98443.34
2022-12-29T01:34:49.089Z,98445.59
2022-12-29T01:37:18.031Z,98452.63
2022-12-29T01:39:45.499Z,98453.34
2022-12-29T01:42:18.039Z,98453.47
2022-12-29T01:44:51.892Z,98455.41
2022-12-29T01:47:28.303Z,98450.25
2022-12-29T01:49:58.420Z,98436.56
2022-12-29T01:52:31.130Z,98444.97
2022-12-29T01:55:00.126Z,98440.63
2022-12-29T01:57:33.349Z,98447.00
2022-12-29T02:00:05.016Z,98445.19
2022-12-29T02:02:33.780Z,98446.78
2022-12-29T02:05:06.681Z,98451.03
2022-12-29T02:07:36.617Z,98438.16
2022-12-29T02:10:05.150Z,98432.72
2022-12-29T02:12:32.673Z,98427.56
2022-12-29T02:15:04.049Z,98424.97
2022-12-29T02:17:49.816Z,98419.47
2022-12-29T02:20:35.278Z,98416.34
2022-12-29T02:23:26.318Z,98418.09
2022-12-29T02:26:37.152Z,98418.81
2022-12-29T02:29:30.039Z,98408.72
2022-12-29T02:32:04.247Z,98414.88
2022-12-29T02:34:45.570Z,98406.28
2022-12-29T02:37:21.704Z,98401.69
2022-12-29T02:39:58.893Z,98401.56
2022-12-29T02:42:33.728Z,98419.03
2022-12-29T02:45:07.340Z,98425.72
2022-12-29T02:47:44.088Z,98411.59
2022-12-29T02:50:19.337Z,98411.50
2022-12-29T02:52:49.921Z,98391.38
2022-12-29T02:55:16.506Z,98395.63
2022-12-29T02:57:44.296Z,98396.81
2022-12-29T03:00:15.947Z,98391.13
2022-12-29T03:03:25.443Z,98402.38
2022-12-29T03:06:15.657Z,98397.78
2022-12-29T03:08:50.636Z,98396.63
2022-12-29T03:11:35.326Z,98403.31
2022-12-29T03:14:27.180Z,98401.09
2022-12-29T03:17:01.500Z,98403.19
2022-12-29T03:19:35.053Z,98397.56
2022-12-29T03:22:34.841Z,98392.25
2022-12-29T03:25:07.432Z,98394.06
2022-12-29T03:27:38.878Z,98392.47
2022-12-29T03:30:09.756Z,98373.72
2022-12-29T03:32:42.432Z,98385.22
2022-12-29T03:35:15.636Z,98372.34
2022-12-29T03:37:51.447Z,98379.06
2022-12-29T03:40:22.801Z,98374.13
2022-12-29T03:42:50.762Z,98379.25
2022-12-29T03:45:18.463Z,98377.47
2022-12-29T03:47:45.976Z,98370.94
2022-12-29T03:50:16.212Z,98377.66
2022-12-29T03:52:45.965Z,98363.19
2022-12-29T03:55:13.499Z,98350.75
2022-12-29T03:57:41.019Z,98371.47
2022-12-29T04:00:09.862Z,98363.06
2022-12-29T04:02:37.556Z,98362.09
2022-12-29T04:05:05.923Z,98359.66
2022-12-29T04:07:34.745Z,98361.34
2022-12-29T04:10:02.242Z,98354.53
2022-12-29T04:12:29.737Z,98355.28
2022-12-29T04:14:57.174Z,98341.13
2022-12-29T04:17:24.694Z,98337.81
2022-12-29T04:19:52.398Z,98335.16
2022-12-29T04:22:19.992Z,98333.25
2022-12-29T04:24:48.870Z,98321.34
2022-12-29T04:27:16.317Z,98322.09
2022-12-29T04:29:46.227Z,98309.09
2022-12-29T04:32:13.675Z,98295.91
2022-12-29T04:34:41.912Z,98296.97
2022-12-29T04:37:09.374Z,98296.00
2022-12-29T04:39:36.839Z,98294.94
2022-12-29T04:42:05.800Z,98301.47
2022-12-29T04:44:33.260Z,98311.66
2022-12-29T04:47:02.424Z,98327.53
2022-12-29T04:49:29.896Z,98336.69
2022-12-29T04:51:57.781Z,98327.63
2022-12-29T04:54:25.517Z,98332.75
2022-12-29T04:56:53.005Z,98333.03
2022-12-29T04:59:21.839Z,98325.59
2022-12-29T05:01:49.327Z,98331.78
2022-12-29T05:04:16.889Z,98322.59
2022-12-29T05:06:44.723Z,98336.53
2022-12-29T05:09:12.221Z,98338.00
2022-12-29T05:11:39.668Z,98331.03
2022-12-29T05:14:07.213Z,98342.91
2022-12-29T05:16:36.525Z,98329.16
2022-12-29T05:19:04.053Z,98339.41
2022-12-29T05:21:31.512Z,98337.81
2022-12-29T05:23:59.004Z,98344.34
2022-12-29T05:26:27.294Z,98339.53
2022-12-29T05:28:54.856Z,98358.78
2022-12-29T05:31:22.496Z,98346.75
2022-12-29T05:33:51.425Z,98345.81
2022-12-29T05:36:18.963Z,98344.41
2022-12-29T05:38:46.465Z,98337.88
2022-12-29T05:41:14.293Z,98351.94
2022-12-29T05:43:41.819Z,98359.94
2022-12-29T05:46:09.347Z,98382.09
2022-12-29T05:48:38.360Z,98386.69
2022-12-29T05:51:07.446Z,98372.75
2022-12-29T05:53:35.234Z,98367.50
2022-12-29T05:56:02.731Z,98343.63
2022-12-29T05:58:30.332Z,98347.19
2022-12-29T06:00:57.783Z,98344.81
2022-12-29T06:03:25.357Z,98349.72
2022-12-29T06:05:53.123Z,98358.13
2022-12-29T06:08:21.937Z,98354.63
2022-12-29T06:10:49.422Z,98352.28
2022-12-29T06:13:17.209Z,98365.66
2022-12-29T06:15:44.918Z,98357.28
2022-12-29T06:18:17.933Z,98358.53
2022-12-29T06:20:47.739Z,98362.50
2022-12-29T06:23:15.231Z,98365.81
2022-12-29T06:25:44.059Z,98374.03
2022-12-29T06:28:11.705Z,98378.91
2022-12-29T06:30:39.189Z,98381.00
2022-12-29T06:33:09.095Z,98383.69
2022-12-29T06:35:36.579Z,98386.25
2022-12-29T06:38:04.071Z,98385.63
2022-12-29T06:40:31.920Z,98395.28
2022-12-29T06:43:00.754Z,98416.47
2022-12-29T06:45:28.283Z,98425.53
2022-12-29T06:47:55.915Z,98423.28
2022-12-29T06:50:23.450Z,98427.44
2022-12-29T06:52:50.946Z,98428.59
2022-12-29T06:55:18.407Z,98436.91
2022-12-29T06:57:45.899Z,98443.00
2022-12-29T07:00:19.490Z,98444.47
2022-12-29T07:02:50.266Z,98453.41
2022-12-29T07:05:17.979Z,98443.22
2022-12-29T07:07:45.569Z,98450.50
2022-12-29T07:10:13.045Z,98459.53
2022-12-29T07:12:40.562Z,98453.75
2022-12-29T07:15:09.243Z,98446.75
2022-12-29T07:17:38.087Z,98447.81
2022-12-29T07:20:06.701Z,98446.44
2022-12-29T07:22:34.594Z,98462.00
2022-12-29T07:25:02.085Z,98444.50
2022-12-29T07:27:29.582Z,98464.88
2022-12-29T07:29:57.031Z,98460.63
2022-12-29T07:32:24.525Z,98469.69
2022-12-29T07:34:53.366Z,98466.78
2022-12-29T07:37:20.872Z,98473.28
2022-12-29T07:39:48.344Z,98478.72
2022-12-29T07:42:15.830Z,98476.78
2022-12-29T07:44:43.687Z,98480.50
2022-12-29T07:47:11.267Z,98494.59
2022-12-29T07:49:38.727Z,98498.53
2022-12-29T07:52:07.660Z,98505.97
2022-12-29T07:54:35.124Z,98504.72
2022-12-29T07:57:02.653Z,98496.19
2022-12-29T07:59:30.124Z,98504.19
2022-12-29T08:01:58.032Z,98513.97
2022-12-29T08:04:25.643Z,98505.47
2022-12-29T08:06:53.128Z,98517.50
2022-12-29T08:09:24.310Z,98513.22
2022-12-29T08:11:54.484Z,98519.22
2022-12-29T08:14:22.297Z,98540.28
2022-12-29T08:16:49.808Z,98529.19
2022-12-29T08:19:17.453Z,98533.34
2022-12-29T08:21:44.935Z,98528.78
2022-12-29T08:24:12.495Z,98516.66
2022-12-29T08:26:41.514Z,98519.41
2022-12-29T08:29:08.983Z,98514.06
2022-12-29T08:31:36.797Z,98519.28
2022-12-29T08:34:05.105Z,98520.13
2022-12-29T08:36:32.635Z,98523.78
2022-12-29T08:39:00.145Z,98525.91
2022-12-29T08:41:27.620Z,98530.38
2022-12-29T08:43:56.431Z,98538.16
2022-12-29T08:46:24.002Z,98540.09
2022-12-29T08:48:51.539Z,98530.69
2022-12-29T08:51:24.531Z,98532.41
2022-12-29T08:53:52.584Z,98523.53
2022-12-29T08:56:20.267Z,98536.25
2022-12-29T08:58:47.845Z,98535.59
2022-12-29T09:01:16.725Z,98539.53
2022-12-29T09:06:36.576Z,98557.41
2022-12-29T09:09:07.616Z,98542.09
2022-12-29T09:11:35.143Z,98545.75
2022-12-29T09:14:02.682Z,98555.75
2022-12-29T09:16:31.614Z,98561.22
2022-12-29T09:18:59.136Z,98557.03
2022-12-29T09:21:26.666Z,98562.47
2022-12-29T09:23:54.187Z,98573.78
2022-12-29T09:26:21.658Z,98579.44
2022-12-29T09:28:49.138Z,98570.06
2022-12-29T09:31:16.652Z,98581.00
2022-12-29T09:33:45.570Z,98585.06
2022-12-29T09:36:13.074Z,98581.59
2022-12-29T09:38:40.548Z,98591.16
2022-12-29T09:41:17.308Z,98601.53
2022-12-29T09:43:57.017Z,98587.03
2022-12-29T09:46:28.008Z,98593.63
2022-12-29T09:49:06.752Z,98592.50
2022-12-29T09:51:37.001Z,98587.84
2022-12-29T09:54:12.585Z,98578.38
2022-12-29T09:56:40.389Z,98592.78
2022-12-29T09:59:15.887Z,98597.63
2022-12-29T10:01:49.390Z,98590.63
2022-12-29T10:04:18.426Z,98590.81
2022-12-29T10:07:27.882Z,98588.78
2022-12-29T10:09:50.518Z,98596.03
2022-12-29T10:12:29.344Z,98581.09
2022-12-29T10:15:06.363Z,98567.50
2022-12-29T10:17:47.665Z,98574.56
2022-12-29T10:20:31.002Z,98574.13
2022-12-29T10:23:17.336Z,98556.22
2022-12-29T10:25:46.006Z,98570.47
2022-12-29T10:28:21.047Z,98572.31
2022-12-29T10:30:50.911Z,98579.88
2022-12-29T10:33:22.225Z,98585.44
2022-12-29T10:35:52.836Z,98572.53
2022-12-29T10:38:27.480Z,98575.44
2022-12-29T10:41:00.474Z,98560.63
2022-12-29T10:43:30.200Z,98591.63
2022-12-29T10:46:00.618Z,98573.00
2022-12-29T10:48:32.732Z,98569.81
2022-12-29T10:51:04.887Z,98570.56
2022-12-29T10:53:40.196Z,98588.56
2022-12-29T10:56:14.895Z,98609.13
2022-12-29T10:58:49.315Z,98587.81
2022-12-29T11:01:18.384Z,98588.44
2022-12-29T11:04:00.976Z,98574.41
2022-12-29T11:06:31.248Z,98602.81
2022-12-29T11:09:00.929Z,98606.03
2022-12-29T11:11:34.130Z,98620.94
2022-12-29T11:14:12.454Z,98615.81
2022-12-29T11:16:40.348Z,98615.72
2022-12-29T11:19:07.873Z,98604.22
2022-12-29T11:21:41.125Z,98599.94
2022-12-29T11:24:23.348Z,98624.66
2022-12-29T11:26:53.851Z,98607.41
2022-12-29T11:29:30.251Z,98606.56
2022-12-29T11:31:59.900Z,98614.41
2022-12-29T11:34:32.398Z,98609.41
2022-12-29T11:37:05.084Z,98627.00
2022-12-29T11:39:37.199Z,98630.19
2022-12-29T11:42:05.620Z,98623.13
2022-12-29T11:44:39.236Z,98643.59
2022-12-29T11:47:11.584Z,98624.84
2022-12-29T11:49:40.079Z,98652.13
2022-12-29T11:52:09.761Z,98652.13
2022-12-29T11:54:39.981Z,98638.06
2022-12-29T11:57:13.779Z,98654.44
2022-12-29T11:59:45.534Z,98644.41
2022-12-29T12:02:30.164Z,98668.75
2022-12-29T12:05:06.253Z,98667.59
2022-12-29T12:07:42.280Z,98672.88
2022-12-29T12:10:18.782Z,98674.25
2022-12-29T12:12:52.184Z,98669.16
2022-12-29T12:15:24.928Z,98679.13
2022-12-29T12:17:57.281Z,98665.16
2022-12-29T12:20:30.207Z,98682.44
2022-12-29T12:23:12.468Z,98678.41
2022-12-29T12:25:44.889Z,98675.34
2022-12-29T12:28:21.313Z,98692.97
2022-12-29T12:30:54.102Z,98683.34
2022-12-29T12:33:29.749Z,98681.19
2022-12-29T12:36:16.620Z,98688.66
2022-12-29T12:38:52.982Z,98706.22
2022-12-29T12:41:30.204Z,98689.00
2022-12-29T12:44:03.954Z,98713.78
2022-12-29T12:47:01.149Z,98710.22
2022-12-29T12:49:49.172Z,98688.75
2022-12-29T12:52:30.923Z,98690.84
2022-12-29T12:55:20.684Z,98690.50
2022-12-29T12:57:58.201Z,98713.34
2022-12-29T13:00:26.158Z,98703.97
2022-12-29T13:03:07.499Z,98716.72
2022-12-29T13:05:43.029Z,98712.84
2022-12-29T13:08:32.195Z,98722.59
2022-12-29T13:11:10.641Z,98714.22
2022-12-29T13:13:59.907Z,98713.38
2022-12-29T13:16:36.804Z,98722.31
2022-12-29T13:19:10.654Z,98715.53
2022-12-29T13:21:58.649Z,98724.69
2022-12-29T13:24:35.773Z,98722.59
2022-12-29T13:27:16.248Z,98746.44
2022-12-29T13:29:51.007Z,98734.19
2022-12-29T13:32:30.735Z,98726.13
2022-12-29T13:35:11.309Z,98723.69
2022-12-29T13:37:50.049Z,98738.78
2022-12-29T13:40:20.900Z,98749.03
2022-12-29T13:42:50.413Z,98735.34
2022-12-29T13:45:21.123Z,98737.75
2022-12-29T13:47:54.944Z,98750.94
2022-12-29T13:50:25.109Z,98766.06
2022-12-29T13:53:03.990Z,98743.88
2022-12-29T13:55:36.879Z,98752.28
2022-12-29T13:58:15.362Z,98746.38
2022-12-29T14:00:50.341Z,98754.28
2022-12-29T14:03:56.652Z,98759.69
2022-12-29T14:06:26.382Z,98762.91
2022-12-29T14:08:56.605Z,98764.19
2022-12-29T14:11:30.561Z,98755.31
2022-12-29T14:14:00.484Z,98765.22
2022-12-29T14:16:33.445Z,98774.03
2022-12-29T14:19:15.162Z,98769.72
2022-12-29T14:21:43.643Z,98772.44
2022-12-29T14:24:30.032Z,98767.06
2022-12-29T14:26:57.505Z,98781.63
2022-12-29T14:29:46.372Z,98780.88
2022-12-29T14:32:39.101Z,98775.31
2022-12-29T14:35:40.247Z,98776.75
2022-12-29T14:38:16.065Z,98788.19
2022-12-29T14:40:43.696Z,98776.06
2022-12-29T14:43:17.102Z,98778.13
2022-12-29T14:45:54.644Z,98786.69
2022-12-29T14:48:30.909Z,98792.88
2022-12-29T14:50:58.599Z,98796.19
2022-12-29T14:53:46.953Z,98787.59
2022-12-29T14:56:16.959Z,98791.25
2022-12-29T14:58:52.451Z,98798.91
2022-12-29T15:01:26.689Z,98808.94
2022-12-29T15:03:58.388Z,98801.53
2022-12-29T15:06:29.904Z,98802.69
2022-12-29T15:09:05.321Z,98801.81
2022-12-29T15:11:49.599Z,98802.00
2022-12-29T15:14:36.852Z,98805.84
2022-12-29T15:17:12.486Z,98805.53
2022-12-29T15:19:40.068Z,98808.56
2022-12-29T15:22:07.738Z,98809.16
2022-12-29T15:24:42.524Z,98801.63
2022-12-29T15:27:15.961Z,98807.50
2022-12-29T15:29:46.522Z,98800.41
2022-12-29T15:32:25.299Z,98791.66
2022-12-29T15:34:54.987Z,98796.59
2022-12-29T15:37:25.515Z,98809.34
2022-12-29T15:39:54.843Z,98799.53
2022-12-29T15:42:51.383Z,98817.53
2022-12-29T15:45:18.971Z,98812.63
2022-12-29T15:47:50.309Z,98806.22
2022-12-29T15:50:24.908Z,98805.91
2022-12-29T15:52:53.019Z,98803.53
2022-12-29T15:55:26.949Z,98811.34
2022-12-29T15:57:58.524Z,98821.59
2022-12-29T16:00:28.913Z,98823.78
2022-12-29T16:03:01.065Z,98841.28
2022-12-29T16:05:35.405Z,98833.63
2022-12-29T16:08:04.756Z,98848.91
2022-12-29T16:10:37.779Z,98855.84
2022-12-29T16:13:22.057Z,98855.66
2022-12-29T16:15:50.029Z,98858.25
2022-12-29T16:18:26.818Z,98859.19
2022-12-29T16:20:56.304Z,98862.13
2022-12-29T16:23:26.815Z,98873.34
2022-12-29T16:25:58.504Z,98865.34
2022-12-29T16:28:42.696Z,98874.69
2022-12-29T16:31:21.287Z,98849.28
2022-12-29T16:33:52.407Z,98864.22
2022-12-29T16:36:33.016Z,98875.34
2022-12-29T16:39:22.573Z,98865.34
2022-12-29T16:41:51.153Z,98866.69
2022-12-29T16:44:21.097Z,98863.66
2022-12-29T16:47:20.345Z,98865.19
2022-12-29T16:49:54.419Z,98869.59
2022-12-29T16:52:27.224Z,98869.56
2022-12-29T16:54:58.216Z,98870.13
2022-12-29T16:57:28.289Z,98870.81
2022-12-29T16:59:59.626Z,98869.66
2022-12-29T17:02:30.503Z,98878.28
2022-12-29T17:04:59.651Z,98881.72
2022-12-29T17:07:28.859Z,98872.50
2022-12-29T17:09:56.354Z,98872.97
2022-12-29T17:12:26.280Z,98886.75
2022-12-29T17:14:57.314Z,98873.34
2022-12-29T17:17:34.069Z,98887.22
2022-12-29T17:20:06.210Z,98882.09
2022-12-29T17:22:34.332Z,98895.97
2022-12-29T17:25:02.940Z,98902.22
2022-12-29T17:27:33.869Z,98901.28
2022-12-29T17:30:05.340Z,98913.22
2022-12-29T17:32:34.037Z,98918.53
2022-12-29T17:35:03.052Z,98911.88
2022-12-29T17:37:36.655Z,98911.22
2022-12-29T17:40:06.165Z,98932.59
2022-12-29T17:42:36.010Z,98926.63
2022-12-29T17:45:04.085Z,98927.81
2022-12-29T17:47:31.592Z,98924.88
2022-12-29T17:49:59.147Z,98921.47
2022-12-29T17:52:28.094Z,98928.19
2022-12-29T17:54:56.328Z,98929.72
2022-12-29T17:57:23.780Z,98936.31
2022-12-29T17:59:51.256Z,98940.34
2022-12-29T18:02:29.042Z,98960.13
2022-12-29T18:04:57.945Z,98963.75
2022-12-29T18:07:35.731Z,98972.22
2022-12-29T18:10:03.961Z,98973.03
2022-12-29T18:12:36.811Z,98990.59
2022-12-29T18:15:05.486Z,98998.72
2022-12-29T18:17:33.183Z,98989.97
2022-12-29T18:20:02.270Z,98988.19
2022-12-29T18:22:31.108Z,98985.09
2022-12-29T18:24:58.654Z,98983.41
2022-12-29T18:27:27.480Z,98984.97
2022-12-29T18:29:54.983Z,98984.53
2022-12-29T18:32:22.480Z,98982.84
2022-12-29T18:34:50.013Z,98987.19
2022-12-29T18:37:17.544Z,98989.91
2022-12-29T18:39:46.379Z,98987.16
2022-12-29T18:42:18.603Z,98984.19
2022-12-29T18:44:46.689Z,98992.25
2022-12-29T18:47:14.410Z,98988.50
2022-12-29T18:49:41.970Z,98991.66
2022-12-29T18:52:14.084Z,98992.31
2022-12-29T18:54:41.621Z,98984.44
2022-12-29T18:57:10.447Z,98999.91
2022-12-29T18:59:38.054Z,98996.13
2022-12-29T19:02:05.747Z,99007.25
2022-12-29T19:04:33.332Z,99006.03
2022-12-29T19:07:00.822Z,99000.56
2022-12-29T19:09:28.334Z,99003.38
2022-12-29T19:11:55.821Z,99004.59
2022-12-29T19:14:24.618Z,98999.22
2022-12-29T19:16:52.170Z,99016.41
2022-12-29T19:19:19.726Z,99011.34
2022-12-29T19:21:47.213Z,99012.00
2022-12-29T19:24:14.715Z,99002.44
2022-12-29T19:26:43.015Z,99015.97
2022-12-29T19:29:16.058Z,99015.63
2022-12-29T19:31:44.928Z,99019.19
2022-12-29T19:34:14.423Z,99020.34
2022-12-29T19:36:42.099Z,99023.44
2022-12-29T19:39:09.665Z,99023.63
2022-12-29T19:41:37.232Z,99023.63
2022-12-29T19:44:05.007Z,99030.06
2022-12-29T19:46:32.792Z,99029.88
2022-12-29T19:49:01.656Z,99037.31
2022-12-29T19:51:29.179Z,99047.72
2022-12-29T19:53:58.341Z,99055.91
2022-12-29T19:56:25.979Z,99052.56
2022-12-29T19:58:53.497Z,99053.19
2022-12-29T20:01:23.537Z,99056.94
2022-12-29T20:03:52.022Z,99061.59
2022-12-29T20:06:21.484Z,99063.16
2022-12-29T20:08:49.108Z,99057.63
2022-12-29T20:11:18.646Z,99059.66
2022-12-29T20:13:46.822Z,99065.81
2022-12-29T20:16:16.055Z,99071.44
2022-12-29T20:18:44.564Z,99071.06
2022-12-29T20:21:14.831Z,99074.41
2022-12-29T20:23:44.941Z,99071.53
2022-12-29T20:26:15.216Z,99079.66
2022-12-29T20:28:42.795Z,99086.44
2022-12-29T20:31:17.066Z,99086.34
2022-12-29T20:33:44.935Z,99089.16
2022-12-29T20:36:15.135Z,99096.50
2022-12-29T20:38:44.851Z,99097.97
2022-12-29T20:41:13.256Z,99105.63
2022-12-29T20:43:41.021Z,99094.97
2022-12-29T20:46:09.074Z,99096.72
2022-12-29T20:48:36.656Z,99093.69
2022-12-29T20:51:04.626Z,99096.66
2022-12-29T20:53:33.436Z,99086.09
2022-12-29T20:56:04.870Z,99094.66
2022-12-29T20:58:32.502Z,99090.25
2022-12-29T21:01:03.358Z,99097.06
2022-12-29T21:03:31.096Z,99096.47
2022-12-29T21:05:59.992Z,99097.31
2022-12-29T21:08:27.945Z,99091.59
2022-12-29T21:10:55.388Z,99092.84
2022-12-29T21:13:24.219Z,99099.38
2022-12-29T21:15:57.043Z,99098.22
2022-12-29T21:18:24.687Z,99105.03
2022-12-29T21:20:56.473Z,99104.72
2022-12-29T21:23:23.967Z,99119.63
2022-12-29T21:25:52.858Z,99123.97
2022-12-29T21:28:22.116Z,99124.94
2022-12-29T21:30:52.162Z,99121.50
2022-12-29T21:33:21.129Z,99128.06
2022-12-29T21:35:49.822Z,99119.06
2022-12-29T21:38:17.326Z,99113.66
2022-12-29T21:40:44.803Z,99130.78
2022-12-29T21:43:12.533Z,99127.13
2022-12-29T21:45:39.071Z,99130.16
2022-12-29T21:48:24.379Z,99136.72
2022-12-29T21:51:11.904Z,99134.00
2022-12-29T21:53:41.574Z,99130.84
2022-12-29T21:56:12.235Z,99128.81
2022-12-29T21:58:58.827Z,99130.22
2022-12-29T22:01:45.230Z,99138.31
2022-12-29T22:04:33.207Z,99138.25
2022-12-29T22:07:18.485Z,99145.13
2022-12-29T22:10:03.500Z,99136.22
2022-12-29T22:12:48.968Z,99133.31
2022-12-29T22:15:16.713Z,99151.72
2022-12-29T22:17:48.682Z,99155.53
2022-12-29T22:20:19.221Z,99149.78
2022-12-29T22:22:46.783Z,99153.09
2022-12-29T22:25:15.331Z,99159.44
2022-12-29T22:27:42.835Z,99151.84
2022-12-29T22:30:11.736Z,99165.59
2022-12-29T22:32:39.442Z,99158.72
2022-12-29T22:35:11.905Z,99160.69
2022-12-29T22:37:43.327Z,99167.19
2022-12-29T22:40:12.808Z,99165.59
2022-12-29T22:42:40.556Z,99163.38
2022-12-29T22:45:09.565Z,99172.41
2022-12-29T22:47:37.149Z,99168.91
2022-12-29T22:50:05.566Z,99185.81
2022-12-29T22:52:33.065Z,99177.84
2022-12-29T22:55:06.812Z,99179.88
2022-12-29T22:57:34.973Z,99193.97
2022-12-29T23:00:02.647Z,99190.91
2022-12-29T23:02:30.423Z,99189.03
2022-12-29T23:05:02.911Z,99190.41
2022-12-29T23:07:31.079Z,99204.06
2022-12-29T23:09:58.615Z,99203.66
2022-12-29T23:12:30.318Z,99206.16
2022-12-29T23:14:57.833Z,99216.69
2022-12-29T23:17:25.750Z,99219.41
2022-12-29T23:19:53.855Z,99227.03
2022-12-29T23:22:22.864Z,99237.50
2022-12-29T23:24:50.333Z,99237.91
2022-12-29T23:27:17.956Z,99250.91
2022-12-29T23:29:46.791Z,99246.75
2022-12-29T23:32:14.300Z,99262.56
2022-12-29T23:34:41.779Z,99261.94
2022-12-29T23:37:09.280Z,99272.25
2022-12-29T23:39:36.856Z,99266.94
2022-12-29T23:42:04.522Z,99267.94
2022-12-29T23:44:31.985Z,99269.66
2022-12-29T23:47:00.815Z,99276.50
2022-12-29T23:49:28.347Z,99280.09
2022-12-29T23:51:55.790Z,99277.72
2022-12-29T23:54:23.283Z,99288.16
2022-12-29T23:56:50.760Z,99295.91
2022-12-29T23:59:18.209Z,99293.63
